28.5°F
Current conditions from King Hill
Updated every 5 minutes
 
  Sunday April 20, 2014

Station Historical Data
Daily Summary for April 6, 2012 Units:  Both    English   Metric
« Previous Day
Next Day »
Daily Weekly Monthly Yearly Custom
  High: Low: Average:
Temperature: 45.9 °F /  7.7 °C 30.5 °F /  -0.8 °C 37.4 °F /  3 °C
Dew Point: 21.9 °F /  -5.6 °C 14.6 °F /  -9.7 °C 19.1 °F /  -7.2 °C
Humidity: 63% 33% 48%
Wind Speed: 11.0mph /  17.7km/h - 4.3mph /  6.9km/h
Wind Gust: 23.0mph /  37km/h - -
Wind- - WSW
Pressure: 30.00 in /  1015.8 hPa 29.88 in /  1011.7 hPa -
Precipitation: 0.00 in /  0 mm    
Historical Graphs
 
 
Tabular Data for April 6, 2012
Time Temperature Dew Point Pressure Wind Wind Speed Wind Gust Humidity Daily Rainfall
00:04 36.1 °F /  2.3 °C 21.5 °F /  -5.8 °C 29.88in /  1011.7hPa Calm   4.0mph /  6.4km/h 55% 0.00in /  0mm
00:09 36.1 °F /  2.3 °C 21.5 °F /  -5.8 °C 29.88in /  1011.7hPa Calm   5.0mph /  8km/h 55% 0.00in /  0mm
00:14 36.2 °F /  2.3 °C 21.6 °F /  -5.8 °C 29.88in /  1011.7hPa Calm   5.0mph /  8km/h 55% 0.00in /  0mm
00:19 36.1 °F /  2.3 °C 20.6 °F /  -6.3 °C 29.88in /  1011.7hPa Calm   6.0mph /  9.7km/h 53% 0.00in /  0mm
00:24 36.2 °F /  2.3 °C 21.2 °F /  -6 °C 29.88in /  1011.7hPa Calm   6.0mph /  9.7km/h 54% 0.00in /  0mm
00:29 36.1 °F /  2.3 °C 21.1 °F /  -6.1 °C 29.88in /  1011.7hPa Calm   4.0mph /  6.4km/h 54% 0.00in /  0mm
00:34 36.0 °F /  2.2 °C 21.0 °F /  -6.1 °C 29.88in /  1011.7hPa Calm   5.0mph /  8km/h 54% 0.00in /  0mm
00:39 35.9 °F /  2.2 °C 20.4 °F /  -6.4 °C 29.88in /  1011.7hPa Calm   5.0mph /  8km/h 53% 0.00in /  0mm
00:44 35.9 °F /  2.2 °C 20.4 °F /  -6.4 °C 29.88in /  1011.7hPa NNW 4.0mph /  6.4km/h 7.0mph /  11.3km/h 53% 0.00in /  0mm
00:49 36.0 °F /  2.2 °C 20.5 °F /  -6.4 °C 29.88in /  1011.7hPa Calm   7.0mph /  11.3km/h 53% 0.00in /  0mm
00:54 35.9 °F /  2.2 °C 20.9 °F /  -6.2 °C 29.88in /  1011.7hPa Calm   4.0mph /  6.4km/h 54% 0.00in /  0mm
00:59 35.9 °F /  2.2 °C 20.4 °F /  -6.4 °C 29.88in /  1011.7hPa NW 1.0mph /  1.6km/h 6.0mph /  9.7km/h 53% 0.00in /  0mm
01:04 35.9 °F /  2.2 °C 20.9 °F /  -6.2 °C 29.89in /  1012.1hPa Calm   6.0mph /  9.7km/h 54% 0.00in /  0mm
01:09 35.7 °F /  2.1 °C 20.7 °F /  -6.3 °C 29.89in /  1012.1hPa Calm   6.0mph /  9.7km/h 54% 0.00in /  0mm
01:14 35.6 °F /  2 °C 20.6 °F /  -6.3 °C 29.89in /  1012.1hPa Calm   6.0mph /  9.7km/h 54% 0.00in /  0mm
01:19 35.5 °F /  1.9 °C 20.9 °F /  -6.2 °C 29.89in /  1012.1hPa NNW 1.0mph /  1.6km/h 6.0mph /  9.7km/h 55% 0.00in /  0mm
01:24 35.3 °F /  1.8 °C 20.3 °F /  -6.5 °C 29.89in /  1012.1hPa NNW 2.0mph /  3.2km/h 9.0mph /  14.5km/h 54% 0.00in /  0mm
01:29 35.3 °F /  1.8 °C 20.7 °F /  -6.3 °C 29.89in /  1012.1hPa Calm   9.0mph /  14.5km/h 55% 0.00in /  0mm
01:34 35.2 °F /  1.8 °C 20.6 °F /  -6.3 °C 29.89in /  1012.1hPa NNW 1.0mph /  1.6km/h 6.0mph /  9.7km/h 55% 0.00in /  0mm
01:39 35.2 °F /  1.8 °C 20.6 °F /  -6.3 °C 29.89in /  1012.1hPa Calm   6.0mph /  9.7km/h 55% 0.00in /  0mm
01:44 35.1 °F /  1.7 °C 20.6 °F /  -6.3 °C 29.89in /  1012.1hPa Calm   6.0mph /  9.7km/h 55% 0.00in /  0mm
01:49 35.0 °F /  1.7 °C 20.5 °F /  -6.4 °C 29.89in /  1012.1hPa NE 1.0mph /  1.6km/h 9.0mph /  14.5km/h 55% 0.00in /  0mm
01:54 35.0 °F /  1.7 °C 20.0 °F /  -6.7 °C 29.89in /  1012.1hPa Calm   9.0mph /  14.5km/h 54% 0.00in /  0mm
01:59 34.8 °F /  1.6 °C 20.3 °F /  -6.5 °C 29.89in /  1012.1hPa Calm   8.0mph /  12.9km/h 55% 0.00in /  0mm
02:04 34.6 °F /  1.4 °C 20.5 °F /  -6.4 °C 29.89in /  1012.1hPa Calm   8.0mph /  12.9km/h 56% 0.00in /  0mm
02:09 34.4 °F /  1.3 °C 20.3 °F /  -6.5 °C 29.89in /  1012.1hPa North 1.0mph /  1.6km/h 5.0mph /  8km/h 56% 0.00in /  0mm
02:14 34.4 °F /  1.3 °C 20.3 °F /  -6.5 °C 29.90in /  1012.4hPa North 1.0mph /  1.6km/h 8.0mph /  12.9km/h 56% 0.00in /  0mm
02:19 34.4 °F /  1.3 °C 20.7 °F /  -6.3 °C 29.90in /  1012.4hPa Calm   8.0mph /  12.9km/h 57% 0.00in /  0mm
02:24 34.2 °F /  1.2 °C 20.1 °F /  -6.6 °C 29.90in /  1012.4hPa North 1.0mph /  1.6km/h 7.0mph /  11.3km/h 56% 0.00in /  0mm
02:29 34.1 °F /  1.2 °C 20.0 °F /  -6.7 °C 29.90in /  1012.4hPa Calm   7.0mph /  11.3km/h 56% 0.00in /  0mm
02:34 33.9 °F /  1.1 °C 19.9 °F /  -6.7 °C 29.90in /  1012.4hPa North 1.0mph /  1.6km/h 8.0mph /  12.9km/h 56% 0.00in /  0mm
02:39 33.9 °F /  1.1 °C 20.3 °F /  -6.5 °C 29.90in /  1012.4hPa NNE 1.0mph /  1.6km/h 8.0mph /  12.9km/h 57% 0.00in /  0mm
02:44 33.8 °F /  1 °C 20.2 °F /  -6.6 °C 29.90in /  1012.4hPa Calm   5.0mph /  8km/h 57% 0.00in /  0mm
02:54 33.6 °F /  0.9 °C 20.0 °F /  -6.7 °C 29.91in /  1012.8hPa Calm   6.0mph /  9.7km/h 57% 0.00in /  0mm
02:59 33.5 °F /  0.8 °C 19.9 °F /  -6.7 °C 29.91in /  1012.8hPa Calm   6.0mph /  9.7km/h 57% 0.00in /  0mm
03:04 33.5 °F /  0.8 °C 19.9 °F /  -6.7 °C 29.91in /  1012.8hPa NE 1.0mph /  1.6km/h 4.0mph /  6.4km/h 57% 0.00in /  0mm
03:09 33.5 °F /  0.8 °C 19.9 °F /  -6.7 °C 29.91in /  1012.8hPa NNE 1.0mph /  1.6km/h 5.0mph /  8km/h 57% 0.00in /  0mm
03:14 33.4 °F /  0.8 °C 20.2 °F /  -6.6 °C 29.91in /  1012.8hPa Calm   5.0mph /  8km/h 58% 0.00in /  0mm
03:19 33.4 °F /  0.8 °C 20.2 °F /  -6.6 °C 29.90in /  1012.4hPa Calm   4.0mph /  6.4km/h 58% 0.00in /  0mm
03:24 33.3 °F /  0.7 °C 20.1 °F /  -6.6 °C 29.90in /  1012.4hPa Calm   3.0mph /  4.8km/h 58% 0.00in /  0mm
03:29 33.1 °F /  0.6 °C 19.9 °F /  -6.7 °C 29.90in /  1012.4hPa Calm   1.0mph /  1.6km/h 58% 0.00in /  0mm
03:34 33.0 °F /  0.6 °C 20.2 °F /  -6.6 °C 29.91in /  1012.8hPa Calm   1.0mph /  1.6km/h 59% 0.00in /  0mm
03:40 32.9 °F /  0.5 °C 20.1 °F /  -6.6 °C 29.91in /  1012.8hPa Calm     59% 0.00in /  0mm
03:49 32.6 °F /  0.3 °C 20.3 °F /  -6.5 °C 29.91in /  1012.8hPa Calm     60% 0.00in /  0mm
03:55 32.5 °F /  0.3 °C 20.5 °F /  -6.4 °C 29.91in /  1012.8hPa Calm     61% 0.00in /  0mm
04:04 32.4 °F /  0.2 °C 20.5 °F /  -6.4 °C 29.91in /  1012.8hPa Calm   2.0mph /  3.2km/h 61% 0.00in /  0mm
04:09 32.3 °F /  0.2 °C 20.4 °F /  -6.4 °C 29.91in /  1012.8hPa Calm     61% 0.00in /  0mm
04:14 32.3 °F /  0.2 °C 20.4 °F /  -6.4 °C 29.91in /  1012.8hPa Calm   1.0mph /  1.6km/h 61% 0.00in /  0mm
04:19 32.3 °F /  0.2 °C 20.7 °F /  -6.3 °C 29.91in /  1012.8hPa Calm   1.0mph /  1.6km/h 62% 0.00in /  0mm
04:24 32.2 °F /  0.1 °C 20.6 °F /  -6.3 °C 29.91in /  1012.8hPa Calm     62% 0.00in /  0mm
04:29 32.1 °F /  0.1 °C 20.5 °F /  -6.4 °C 29.91in /  1012.8hPa Calm     62% 0.00in /  0mm
04:34 32.1 °F /  0.1 °C 20.5 °F /  -6.4 °C 29.91in /  1012.8hPa Calm     62% 0.00in /  0mm
04:45 32.2 °F /  0.1 °C 21.0 °F /  -6.1 °C 29.91in /  1012.8hPa NE 1.0mph /  1.6km/h 4.0mph /  6.4km/h 63% 0.00in /  0mm
04:54 32.3 °F /  0.2 °C 20.0 °F /  -6.7 °C 29.91in /  1012.8hPa NNE 1.0mph /  1.6km/h 11.0mph /  17.7km/h 60% 0.00in /  0mm
04:59 32.3 °F /  0.2 °C 20.0 °F /  -6.7 °C 29.91in /  1012.8hPa NNE 2.0mph /  3.2km/h 9.0mph /  14.5km/h 60% 0.00in /  0mm
05:04 32.2 °F /  0.1 °C 20.3 °F /  -6.5 °C 29.92in /  1013.1hPa North 1.0mph /  1.6km/h 9.0mph /  14.5km/h 61% 0.00in /  0mm
05:09 32.0 °F /  0 °C 19.7 °F /  -6.8 °C 29.92in /  1013.1hPa NNE 2.0mph /  3.2km/h 8.0mph /  12.9km/h 60% 0.00in /  0mm
05:14 31.9 °F /  -0.1 °C 20.0 °F /  -6.7 °C 29.92in /  1013.1hPa North 4.0mph /  6.4km/h 12.0mph /  19.3km/h 61% 0.00in /  0mm
05:19 31.7 °F /  -0.2 °C 19.8 °F /  -6.8 °C 29.92in /  1013.1hPa NNE 2.0mph /  3.2km/h 12.0mph /  19.3km/h 61% 0.00in /  0mm
05:24 31.6 °F /  -0.2 °C 19.7 °F /  -6.8 °C 29.92in /  1013.1hPa NE 2.0mph /  3.2km/h 12.0mph /  19.3km/h 61% 0.00in /  0mm
05:29 31.5 °F /  -0.3 °C 19.6 °F /  -6.9 °C 29.92in /  1013.1hPa NNE 4.0mph /  6.4km/h 11.0mph /  17.7km/h 61% 0.00in /  0mm
05:35 31.4 °F /  -0.3 °C 19.5 °F /  -6.9 °C 29.92in /  1013.1hPa NNE 2.0mph /  3.2km/h 10.0mph /  16.1km/h 61% 0.00in /  0mm
05:45 31.2 °F /  -0.4 °C 19.7 °F /  -6.8 °C 29.92in /  1013.1hPa Calm   8.0mph /  12.9km/h 62% 0.00in /  0mm
05:55 31.0 °F /  -0.6 °C 19.1 °F /  -7.2 °C 29.93in /  1013.4hPa NNE 3.0mph /  4.8km/h 12.0mph /  19.3km/h 61% 0.00in /  0mm
06:04 30.8 °F /  -0.7 °C 18.9 °F /  -7.3 °C 29.93in /  1013.4hPa Calm   8.0mph /  12.9km/h 61% 0.00in /  0mm
06:09 30.7 °F /  -0.7 °C 18.5 °F /  -7.5 °C 29.93in /  1013.4hPa NNE 2.0mph /  3.2km/h 8.0mph /  12.9km/h 60% 0.00in /  0mm
06:14 30.7 °F /  -0.7 °C 18.5 °F /  -7.5 °C 29.93in /  1013.4hPa NNE 1.0mph /  1.6km/h 7.0mph /  11.3km/h 60% 0.00in /  0mm
06:24 30.6 °F /  -0.8 °C 18.4 °F /  -7.6 °C 29.93in /  1013.4hPa NNE 2.0mph /  3.2km/h 6.0mph /  9.7km/h 60% 0.00in /  0mm
06:30 30.6 °F /  -0.8 °C 18.0 °F /  -7.8 °C 29.93in /  1013.4hPa NNE 4.0mph /  6.4km/h 8.0mph /  12.9km/h 59% 0.00in /  0mm
06:40 30.6 °F /  -0.8 °C 18.0 °F /  -7.8 °C 29.93in /  1013.4hPa NE 2.0mph /  3.2km/h 11.0mph /  17.7km/h 59% 0.00in /  0mm
06:49 30.6 °F /  -0.8 °C 18.0 °F /  -7.8 °C 29.94in /  1013.8hPa NE 2.0mph /  3.2km/h 6.0mph /  9.7km/h 59% 0.00in /  0mm
06:55 30.5 °F /  -0.8 °C 18.3 °F /  -7.6 °C 29.94in /  1013.8hPa Calm   9.0mph /  14.5km/h 60% 0.00in /  0mm
07:04 30.6 °F /  -0.8 °C 18.0 °F /  -7.8 °C 29.94in /  1013.8hPa Calm   10.0mph /  16.1km/h 59% 0.00in /  0mm
07:09 30.6 °F /  -0.8 °C 18.4 °F /  -7.6 °C 29.94in /  1013.8hPa NNE 1.0mph /  1.6km/h 10.0mph /  16.1km/h 60% 0.00in /  0mm
07:14 30.7 °F /  -0.7 °C 18.5 °F /  -7.5 °C 29.94in /  1013.8hPa Calm   8.0mph /  12.9km/h 60% 0.00in /  0mm
07:19 30.8 °F /  -0.7 °C 18.2 °F /  -7.7 °C 29.95in /  1014.1hPa NNE 1.0mph /  1.6km/h 8.0mph /  12.9km/h 59% 0.00in /  0mm
07:24 30.8 °F /  -0.7 °C 18.2 °F /  -7.7 °C 29.95in /  1014.1hPa North 2.0mph /  3.2km/h 8.0mph /  12.9km/h 59% 0.00in /  0mm
07:29 30.9 °F /  -0.6 °C 18.6 °F /  -7.4 °C 29.95in /  1014.1hPa NNE 1.0mph /  1.6km/h 8.0mph /  12.9km/h 60% 0.00in /  0mm
07:34 31.0 °F /  -0.6 °C 18.3 °F /  -7.6 °C 29.95in /  1014.1hPa Calm   6.0mph /  9.7km/h 59% 0.00in /  0mm
07:39 31.1 °F /  -0.5 °C 18.4 °F /  -7.6 °C 29.96in /  1014.4hPa NNW 1.0mph /  1.6km/h 8.0mph /  12.9km/h 59% 0.00in /  0mm
07:44 31.2 °F /  -0.4 °C 18.5 °F /  -7.5 °C 29.96in /  1014.4hPa North 1.0mph /  1.6km/h 8.0mph /  12.9km/h 59% 0.00in /  0mm
07:49 31.3 °F /  -0.4 °C 18.6 °F /  -7.4 °C 29.96in /  1014.4hPa North 1.0mph /  1.6km/h 8.0mph /  12.9km/h 59% 0.00in /  0mm
07:59 31.5 °F /  -0.3 °C 18.8 °F /  -7.3 °C 29.96in /  1014.4hPa North 1.0mph /  1.6km/h 9.0mph /  14.5km/h 59% 0.00in /  0mm
08:04 31.5 °F /  -0.3 °C 18.8 °F /  -7.3 °C 29.96in /  1014.4hPa NNE 1.0mph /  1.6km/h 10.0mph /  16.1km/h 59% 0.00in /  0mm
08:09 31.5 °F /  -0.3 °C 18.8 °F /  -7.3 °C 29.97in /  1014.8hPa NNW 3.0mph /  4.8km/h 10.0mph /  16.1km/h 59% 0.00in /  0mm
08:14 31.6 °F /  -0.2 °C 18.9 °F /  -7.3 °C 29.97in /  1014.8hPa NNW 2.0mph /  3.2km/h 10.0mph /  16.1km/h 59% 0.00in /  0mm
08:19 31.6 °F /  -0.2 °C 18.9 °F /  -7.3 °C 29.97in /  1014.8hPa North 2.0mph /  3.2km/h 8.0mph /  12.9km/h 59% 0.00in /  0mm
08:29 31.8 °F /  -0.1 °C 19.1 °F /  -7.2 °C 29.97in /  1014.8hPa NNE 1.0mph /  1.6km/h 10.0mph /  16.1km/h 59% 0.00in /  0mm
08:34 31.7 °F /  -0.2 °C 18.6 °F /  -7.4 °C 29.97in /  1014.8hPa North 2.0mph /  3.2km/h 13.0mph /  20.9km/h 58% 0.00in /  0mm
08:39 31.8 °F /  -0.1 °C 18.7 °F /  -7.4 °C 29.97in /  1014.8hPa NNE 3.0mph /  4.8km/h 13.0mph /  20.9km/h 58% 0.00in /  0mm
08:44 32.0 °F /  0 °C 19.3 °F /  -7.1 °C 29.98in /  1015.1hPa NE 2.0mph /  3.2km/h 10.0mph /  16.1km/h 59% 0.00in /  0mm
08:54 32.4 °F /  0.2 °C 20.1 °F /  -6.6 °C 29.98in /  1015.1hPa NNE 3.0mph /  4.8km/h 9.0mph /  14.5km/h 60% 0.00in /  0mm
08:59 32.8 °F /  0.4 °C 20.0 °F /  -6.7 °C 29.98in /  1015.1hPa North 2.0mph /  3.2km/h 8.0mph /  12.9km/h 59% 0.00in /  0mm
09:09 33.6 °F /  0.9 °C 20.0 °F /  -6.7 °C 29.98in /  1015.1hPa North 2.0mph /  3.2km/h 11.0mph /  17.7km/h 57% 0.00in /  0mm
09:14 34.1 °F /  1.2 °C 20.5 °F /  -6.4 °C 29.98in /  1015.1hPa Calm   10.0mph /  16.1km/h 57% 0.00in /  0mm
09:19 34.4 °F /  1.3 °C 19.9 °F /  -6.7 °C 29.98in /  1015.1hPa North 3.0mph /  4.8km/h 10.0mph /  16.1km/h 55% 0.00in /  0mm
09:24 34.4 °F /  1.3 °C 19.9 °F /  -6.7 °C 29.98in /  1015.1hPa NE 3.0mph /  4.8km/h 13.0mph /  20.9km/h 55% 0.00in /  0mm
09:29 34.4 °F /  1.3 °C 19.9 °F /  -6.7 °C 29.98in /  1015.1hPa NNW 3.0mph /  4.8km/h 13.0mph /  20.9km/h 55% 0.00in /  0mm
09:34 35.1 °F /  1.7 °C 20.6 °F /  -6.3 °C 29.98in /  1015.1hPa NNE 5.0mph /  8km/h 17.0mph /  27.4km/h 55% 0.00in /  0mm
09:39 35.6 °F /  2 °C 19.7 °F /  -6.8 °C 29.99in /  1015.5hPa NNE 4.0mph /  6.4km/h 17.0mph /  27.4km/h 52% 0.00in /  0mm
09:44 35.6 °F /  2 °C 19.7 °F /  -6.8 °C 29.99in /  1015.5hPa NNE 6.0mph /  9.7km/h 16.0mph /  25.7km/h 52% 0.00in /  0mm
09:49 35.5 °F /  1.9 °C 20.1 °F /  -6.6 °C 29.99in /  1015.5hPa North 3.0mph /  4.8km/h 16.0mph /  25.7km/h 53% 0.00in /  0mm
09:54 35.3 °F /  1.8 °C 19.9 °F /  -6.7 °C 29.99in /  1015.5hPa NNW 4.0mph /  6.4km/h 11.0mph /  17.7km/h 53% 0.00in /  0mm
09:59 35.8 °F /  2.1 °C 20.3 °F /  -6.5 °C 30.00in /  1015.8hPa NNW 5.0mph /  8km/h 13.0mph /  20.9km/h 53% 0.00in /  0mm
10:04 36.4 °F /  2.4 °C 20.4 °F /  -6.4 °C 29.99in /  1015.5hPa North 3.0mph /  4.8km/h 13.0mph /  20.9km/h 52% 0.00in /  0mm
10:09 36.4 °F /  2.4 °C 20.4 °F /  -6.4 °C 30.00in /  1015.8hPa North 3.0mph /  4.8km/h 12.0mph /  19.3km/h 52% 0.00in /  0mm
10:14 36.1 °F /  2.3 °C 19.3 °F /  -7.1 °C 30.00in /  1015.8hPa NNW 6.0mph /  9.7km/h 13.0mph /  20.9km/h 50% 0.00in /  0mm
10:19 36.5 °F /  2.5 °C 21.0 °F /  -6.1 °C 30.00in /  1015.8hPa NNW 1.0mph /  1.6km/h 13.0mph /  20.9km/h 53% 0.00in /  0mm
10:24 37.1 °F /  2.8 °C 20.6 °F /  -6.3 °C 30.00in /  1015.8hPa North 5.0mph /  8km/h 16.0mph /  25.7km/h 51% 0.00in /  0mm
10:29 37.6 °F /  3.1 °C 20.6 °F /  -6.3 °C 30.00in /  1015.8hPa North 4.0mph /  6.4km/h 16.0mph /  25.7km/h 50% 0.00in /  0mm
10:34 37.8 °F /  3.2 °C 20.8 °F /  -6.2 °C 30.00in /  1015.8hPa North 5.0mph /  8km/h 12.0mph /  19.3km/h 50% 0.00in /  0mm
10:39 36.4 °F /  2.4 °C 19.1 °F /  -7.2 °C 30.00in /  1015.8hPa NW 8.0mph /  12.9km/h 17.0mph /  27.4km/h 49% 0.00in /  0mm
10:44 36.0 °F /  2.2 °C 20.1 °F /  -6.6 °C 30.00in /  1015.8hPa NW 3.0mph /  4.8km/h 17.0mph /  27.4km/h 52% 0.00in /  0mm
10:49 36.6 °F /  2.6 °C 20.2 °F /  -6.6 °C 30.00in /  1015.8hPa NNW 2.0mph /  3.2km/h 13.0mph /  20.9km/h 51% 0.00in /  0mm
10:54 36.5 °F /  2.5 °C 19.6 °F /  -6.9 °C 30.00in /  1015.8hPa NNW 5.0mph /  8km/h 13.0mph /  20.9km/h 50% 0.00in /  0mm
11:04 37.1 °F /  2.8 °C 20.6 °F /  -6.3 °C 30.00in /  1015.8hPa NW 8.0mph /  12.9km/h 13.0mph /  20.9km/h 51% 0.00in /  0mm
11:09 37.0 °F /  2.8 °C 19.6 °F /  -6.9 °C 29.99in /  1015.5hPa NNW 4.0mph /  6.4km/h 13.0mph /  20.9km/h 49% 0.00in /  0mm
11:14 37.6 °F /  3.1 °C 20.2 °F /  -6.6 °C 30.00in /  1015.8hPa NW 5.0mph /  8km/h 17.0mph /  27.4km/h 49% 0.00in /  0mm
11:19 37.7 °F /  3.2 °C 20.3 °F /  -6.5 °C 30.00in /  1015.8hPa North 4.0mph /  6.4km/h 17.0mph /  27.4km/h 49% 0.00in /  0mm
11:24 38.2 °F /  3.4 °C 20.7 °F /  -6.3 °C 30.00in /  1015.8hPa NNE 6.0mph /  9.7km/h 13.0mph /  20.9km/h 49% 0.00in /  0mm
11:29 38.0 °F /  3.3 °C 19.6 °F /  -6.9 °C 30.00in /  1015.8hPa NNW 7.0mph /  11.3km/h 13.0mph /  20.9km/h 47% 0.00in /  0mm
11:34 38.9 °F /  3.8 °C 21.4 °F /  -5.9 °C 29.99in /  1015.5hPa North 5.0mph /  8km/h 12.0mph /  19.3km/h 49% 0.00in /  0mm
11:40 39.0 °F /  3.9 °C 20.5 °F /  -6.4 °C 30.00in /  1015.8hPa WNW 6.0mph /  9.7km/h 13.0mph /  20.9km/h 47% 0.00in /  0mm
11:49 39.2 °F /  4 °C 21.2 °F /  -6 °C 30.00in /  1015.8hPa North 4.0mph /  6.4km/h 17.0mph /  27.4km/h 48% 0.00in /  0mm
11:55 40.0 °F /  4.4 °C 21.9 °F /  -5.6 °C 29.99in /  1015.5hPa NNW 3.0mph /  4.8km/h 12.0mph /  19.3km/h 48% 0.00in /  0mm
12:05 39.4 °F /  4.1 °C 20.3 °F /  -6.5 °C 29.99in /  1015.5hPa NW 9.0mph /  14.5km/h 16.0mph /  25.7km/h 46% 0.00in /  0mm
12:14 38.3 °F /  3.5 °C 20.3 °F /  -6.5 °C 29.99in /  1015.5hPa NW 6.0mph /  9.7km/h 15.0mph /  24.1km/h 48% 0.00in /  0mm
12:19 38.5 °F /  3.6 °C 20.0 °F /  -6.7 °C 30.00in /  1015.8hPa NW 8.0mph /  12.9km/h 15.0mph /  24.1km/h 47% 0.00in /  0mm
12:24 38.9 °F /  3.8 °C 20.9 °F /  -6.2 °C 30.00in /  1015.8hPa NW 2.0mph /  3.2km/h 15.0mph /  24.1km/h 48% 0.00in /  0mm
12:29 39.4 °F /  4.1 °C 20.8 °F /  -6.2 °C 30.00in /  1015.8hPa NNW 6.0mph /  9.7km/h 17.0mph /  27.4km/h 47% 0.00in /  0mm
12:40 40.3 °F /  4.6 °C 20.6 °F /  -6.3 °C 30.00in /  1015.8hPa NNW 6.0mph /  9.7km/h 16.0mph /  25.7km/h 45% 0.00in /  0mm
12:50 40.0 °F /  4.4 °C 20.4 °F /  -6.4 °C 29.99in /  1015.5hPa NW 10.0mph /  16.1km/h 18.0mph /  29km/h 45% 0.00in /  0mm
12:59 40.4 °F /  4.7 °C 20.2 °F /  -6.6 °C 30.00in /  1015.8hPa NNW 4.0mph /  6.4km/h 16.0mph /  25.7km/h 44% 0.00in /  0mm
13:04 40.5 °F /  4.7 °C 20.8 °F /  -6.2 °C 29.99in /  1015.5hPa NW 7.0mph /  11.3km/h 16.0mph /  25.7km/h 45% 0.00in /  0mm
13:09 40.9 °F /  4.9 °C 20.1 °F /  -6.6 °C 29.99in /  1015.5hPa North 6.0mph /  9.7km/h 12.0mph /  19.3km/h 43% 0.00in /  0mm
13:14 41.4 °F /  5.2 °C 21.1 °F /  -6.1 °C 29.99in /  1015.5hPa NNW 6.0mph /  9.7km/h 15.0mph /  24.1km/h 44% 0.00in /  0mm
13:19 41.4 °F /  5.2 °C 20.6 °F /  -6.3 °C 29.99in /  1015.5hPa NNW 5.0mph /  8km/h 15.0mph /  24.1km/h 43% 0.00in /  0mm
13:24 41.4 °F /  5.2 °C 20.0 °F /  -6.7 °C 29.99in /  1015.5hPa NW 7.0mph /  11.3km/h 13.0mph /  20.9km/h 42% 0.00in /  0mm
13:29 41.9 °F /  5.5 °C 19.9 °F /  -6.7 °C 29.99in /  1015.5hPa NNW 6.0mph /  9.7km/h 13.0mph /  20.9km/h 41% 0.00in /  0mm
13:34 41.9 °F /  5.5 °C 20.5 °F /  -6.4 °C 29.99in /  1015.5hPa NW 9.0mph /  14.5km/h 15.0mph /  24.1km/h 42% 0.00in /  0mm
13:45 42.2 °F /  5.7 °C 20.7 °F /  -6.3 °C 29.98in /  1015.1hPa North 4.0mph /  6.4km/h 12.0mph /  19.3km/h 42% 0.00in /  0mm
13:54 42.2 °F /  5.7 °C 19.6 °F /  -6.9 °C 29.98in /  1015.1hPa NNW 7.0mph /  11.3km/h 14.0mph /  22.5km/h 40% 0.00in /  0mm
14:00 41.7 °F /  5.4 °C 20.3 °F /  -6.5 °C 29.99in /  1015.5hPa NNW 4.0mph /  6.4km/h 14.0mph /  22.5km/h 42% 0.00in /  0mm
14:09 42.6 °F /  5.9 °C 20.5 °F /  -6.4 °C 29.98in /  1015.1hPa NW 6.0mph /  9.7km/h 14.0mph /  22.5km/h 41% 0.00in /  0mm
14:14 42.7 °F /  5.9 °C 20.6 °F /  -6.3 °C 29.98in /  1015.1hPa NNW 6.0mph /  9.7km/h 14.0mph /  22.5km/h 41% 0.00in /  0mm
14:19 43.2 °F /  6.2 °C 21.1 °F /  -6.1 °C 29.98in /  1015.1hPa North 4.0mph /  6.4km/h 11.0mph /  17.7km/h 41% 0.00in /  0mm
14:24 43.3 °F /  6.3 °C 21.2 °F /  -6 °C 29.98in /  1015.1hPa NNW 8.0mph /  12.9km/h 17.0mph /  27.4km/h 41% 0.00in /  0mm
14:29 43.1 °F /  6.2 °C 21.6 °F /  -5.8 °C 29.98in /  1015.1hPa NNW 7.0mph /  11.3km/h 17.0mph /  27.4km/h 42% 0.00in /  0mm
14:34 42.9 °F /  6.1 °C 20.2 °F /  -6.6 °C 29.98in /  1015.1hPa NNW 6.0mph /  9.7km/h 17.0mph /  27.4km/h 40% 0.00in /  0mm
14:39 42.9 °F /  6.1 °C 20.8 °F /  -6.2 °C 29.98in /  1015.1hPa NNW 6.0mph /  9.7km/h 19.0mph /  30.6km/h 41% 0.00in /  0mm
14:49 43.7 °F /  6.5 °C 21.0 °F /  -6.1 °C 29.97in /  1014.8hPa NNW 6.0mph /  9.7km/h 12.0mph /  19.3km/h 40% 0.00in /  0mm
14:54 43.6 °F /  6.4 °C 19.7 °F /  -6.8 °C 29.97in /  1014.8hPa NNW 11.0mph /  17.7km/h 19.0mph /  30.6km/h 38% 0.00in /  0mm
14:59 42.5 °F /  5.8 °C 20.5 °F /  -6.4 °C 29.97in /  1014.8hPa North 4.0mph /  6.4km/h 19.0mph /  30.6km/h 41% 0.00in /  0mm
15:05 43.6 °F /  6.4 °C 20.9 °F /  -6.2 °C 29.97in /  1014.8hPa North 4.0mph /  6.4km/h 14.0mph /  22.5km/h 40% 0.00in /  0mm
15:14 43.6 °F /  6.4 °C 19.7 °F /  -6.8 °C 29.96in /  1014.4hPa WNW 11.0mph /  17.7km/h 16.0mph /  25.7km/h 38% 0.00in /  0mm
15:19 43.1 °F /  6.2 °C 20.4 °F /  -6.4 °C 29.96in /  1014.4hPa NW 9.0mph /  14.5km/h 16.0mph /  25.7km/h 40% 0.00in /  0mm
15:25 43.0 °F /  6.1 °C 19.7 °F /  -6.8 °C 29.96in /  1014.4hPa NW 7.0mph /  11.3km/h 17.0mph /  27.4km/h 39% 0.00in /  0mm
15:34 44.5 °F /  6.9 °C 21.1 °F /  -6.1 °C 29.96in /  1014.4hPa NNW 6.0mph /  9.7km/h 15.0mph /  24.1km/h 39% 0.00in /  0mm
15:40 43.7 °F /  6.5 °C 19.7 °F /  -6.8 °C 29.96in /  1014.4hPa WNW 10.0mph /  16.1km/h 16.0mph /  25.7km/h 38% 0.00in /  0mm
15:49 43.8 °F /  6.6 °C 19.8 °F /  -6.8 °C 29.96in /  1014.4hPa NW 9.0mph /  14.5km/h 23.0mph /  37km/h 38% 0.00in /  0mm
15:54 43.8 °F /  6.6 °C 19.8 °F /  -6.8 °C 29.96in /  1014.4hPa NNW 6.0mph /  9.7km/h 16.0mph /  25.7km/h 38% 0.00in /  0mm
16:04 45.0 °F /  7.2 °C 19.6 °F /  -6.9 °C 29.96in /  1014.4hPa NNW 7.0mph /  11.3km/h 16.0mph /  25.7km/h 36% 0.00in /  0mm
16:09 44.9 °F /  7.2 °C 19.6 °F /  -6.9 °C 29.95in /  1014.1hPa NNW 3.0mph /  4.8km/h 15.0mph /  24.1km/h 36% 0.00in /  0mm
16:14 44.8 °F /  7.1 °C 19.5 °F /  -6.9 °C 29.95in /  1014.1hPa WNW 7.0mph /  11.3km/h 17.0mph /  27.4km/h 36% 0.00in /  0mm
16:19 44.4 °F /  6.9 °C 20.4 °F /  -6.4 °C 29.95in /  1014.1hPa NW 4.0mph /  6.4km/h 17.0mph /  27.4km/h 38% 0.00in /  0mm
16:24 45.0 °F /  7.2 °C 19.6 °F /  -6.9 °C 29.95in /  1014.1hPa NW 8.0mph /  12.9km/h 15.0mph /  24.1km/h 36% 0.00in /  0mm
16:34 45.0 °F /  7.2 °C 19.0 °F /  -7.2 °C 29.95in /  1014.1hPa NW 7.0mph /  11.3km/h 18.0mph /  29km/h 35% 0.00in /  0mm
16:39 45.1 °F /  7.3 °C 19.1 °F /  -7.2 °C 29.95in /  1014.1hPa NNW 7.0mph /  11.3km/h 18.0mph /  29km/h 35% 0.00in /  0mm
16:44 45.0 °F /  7.2 °C 20.3 °F /  -6.5 °C 29.95in /  1014.1hPa NNW 7.0mph /  11.3km/h 17.0mph /  27.4km/h 37% 0.00in /  0mm
16:49 45.5 °F /  7.5 °C 20.1 °F /  -6.6 °C 29.95in /  1014.1hPa NNW 5.0mph /  8km/h 17.0mph /  27.4km/h 36% 0.00in /  0mm
16:54 45.8 °F /  7.7 °C 19.0 °F /  -7.2 °C 29.95in /  1014.1hPa NW 7.0mph /  11.3km/h 16.0mph /  25.7km/h 34% 0.00in /  0mm
16:59 45.5 °F /  7.5 °C 19.4 °F /  -7 °C 29.95in /  1014.1hPa NNW 5.0mph /  8km/h 16.0mph /  25.7km/h 35% 0.00in /  0mm
17:04 45.8 °F /  7.7 °C 20.4 °F /  -6.4 °C 29.95in /  1014.1hPa NNW 3.0mph /  4.8km/h 19.0mph /  30.6km/h 36% 0.00in /  0mm
17:09 45.9 °F /  7.7 °C 19.1 °F /  -7.2 °C 29.95in /  1014.1hPa NNW 8.0mph /  12.9km/h 19.0mph /  30.6km/h 34% 0.00in /  0mm
17:14 45.3 °F /  7.4 °C 19.2 °F /  -7.1 °C 29.95in /  1014.1hPa NW 8.0mph /  12.9km/h 16.0mph /  25.7km/h 35% 0.00in /  0mm
17:19 45.2 °F /  7.3 °C 19.2 °F /  -7.1 °C 29.95in /  1014.1hPa NNW 7.0mph /  11.3km/h 15.0mph /  24.1km/h 35% 0.00in /  0mm
17:24 45.1 °F /  7.3 °C 18.4 °F /  -7.6 °C 29.95in /  1014.1hPa NW 7.0mph /  11.3km/h 15.0mph /  24.1km/h 34% 0.00in /  0mm
17:29 45.0 °F /  7.2 °C 18.3 °F /  -7.6 °C 29.95in /  1014.1hPa NW 7.0mph /  11.3km/h 15.0mph /  24.1km/h 34% 0.00in /  0mm
17:34 45.0 °F /  7.2 °C 19.0 °F /  -7.2 °C 29.94in /  1013.8hPa NW 6.0mph /  9.7km/h 16.0mph /  25.7km/h 35% 0.00in /  0mm
17:39 45.3 °F /  7.4 °C 19.2 °F /  -7.1 °C 29.94in /  1013.8hPa North 5.0mph /  8km/h 16.0mph /  25.7km/h 35% 0.00in /  0mm
17:45 45.3 °F /  7.4 °C 17.9 °F /  -7.8 °C 29.95in /  1014.1hPa NW 8.0mph /  12.9km/h 14.0mph /  22.5km/h 33% 0.00in /  0mm
17:54 45.3 °F /  7.4 °C 18.6 °F /  -7.4 °C 29.94in /  1013.8hPa NW 7.0mph /  11.3km/h 17.0mph /  27.4km/h 34% 0.00in /  0mm
17:59 44.6 °F /  7 °C 18.0 °F /  -7.8 °C 29.94in /  1013.8hPa WNW 8.0mph /  12.9km/h 16.0mph /  25.7km/h 34% 0.00in /  0mm
18:04 44.5 °F /  6.9 °C 17.9 °F /  -7.8 °C 29.94in /  1013.8hPa NW 7.0mph /  11.3km/h 16.0mph /  25.7km/h 34% 0.00in /  0mm
18:09 44.8 °F /  7.1 °C 18.1 °F /  -7.7 °C 29.94in /  1013.8hPa NW 6.0mph /  9.7km/h 15.0mph /  24.1km/h 34% 0.00in /  0mm
18:14 44.9 °F /  7.2 °C 18.2 °F /  -7.7 °C 29.94in /  1013.8hPa NW 8.0mph /  12.9km/h 14.0mph /  22.5km/h 34% 0.00in /  0mm
18:19 44.7 °F /  7.1 °C 18.0 °F /  -7.8 °C 29.94in /  1013.8hPa NNW 7.0mph /  11.3km/h 15.0mph /  24.1km/h 34% 0.00in /  0mm
18:24 44.5 °F /  6.9 °C 17.9 °F /  -7.8 °C 29.94in /  1013.8hPa NNW 7.0mph /  11.3km/h 17.0mph /  27.4km/h 34% 0.00in /  0mm
18:29 44.2 °F /  6.8 °C 16.9 °F /  -8.4 °C 29.95in /  1014.1hPa NW 9.0mph /  14.5km/h 18.0mph /  29km/h 33% 0.00in /  0mm
18:34 43.6 °F /  6.4 °C 17.1 °F /  -8.3 °C 29.95in /  1014.1hPa NNW 7.0mph /  11.3km/h 19.0mph /  30.6km/h 34% 0.00in /  0mm
18:40 43.1 °F /  6.2 °C 16.6 °F /  -8.6 °C 29.95in /  1014.1hPa NNW 5.0mph /  8km/h 19.0mph /  30.6km/h 34% 0.00in /  0mm
18:49 43.1 °F /  6.2 °C 16.6 °F /  -8.6 °C 29.95in /  1014.1hPa NNW 6.0mph /  9.7km/h 14.0mph /  22.5km/h 34% 0.00in /  0mm
18:55 42.9 °F /  6.1 °C 16.4 °F /  -8.7 °C 29.95in /  1014.1hPa NW 6.0mph /  9.7km/h 14.0mph /  22.5km/h 34% 0.00in /  0mm
19:05 42.1 °F /  5.6 °C 16.4 °F /  -8.7 °C 29.95in /  1014.1hPa NW 6.0mph /  9.7km/h 16.0mph /  25.7km/h 35% 0.00in /  0mm
19:14 41.3 °F /  5.2 °C 16.3 °F /  -8.7 °C 29.95in /  1014.1hPa NW 1.0mph /  1.6km/h 11.0mph /  17.7km/h 36% 0.00in /  0mm
19:19 40.7 °F /  4.8 °C 16.4 °F /  -8.7 °C 29.96in /  1014.4hPa NW 2.0mph /  3.2km/h 9.0mph /  14.5km/h 37% 0.00in /  0mm
19:24 40.2 °F /  4.6 °C 16.0 °F /  -8.9 °C 29.96in /  1014.4hPa NW 2.0mph /  3.2km/h 9.0mph /  14.5km/h 37% 0.00in /  0mm
19:34 40.0 °F /  4.4 °C 16.4 °F /  -8.7 °C 29.96in /  1014.4hPa NW 5.0mph /  8km/h 11.0mph /  17.7km/h 38% 0.00in /  0mm
19:40 39.9 °F /  4.4 °C 16.3 °F /  -8.7 °C 29.96in /  1014.4hPa NNW 5.0mph /  8km/h 11.0mph /  17.7km/h 38% 0.00in /  0mm
19:49 39.6 °F /  4.2 °C 16.1 °F /  -8.8 °C 29.97in /  1014.8hPa NNW 2.0mph /  3.2km/h 11.0mph /  17.7km/h 38% 0.00in /  0mm
19:55 39.3 °F /  4.1 °C 15.8 °F /  -9 °C 29.97in /  1014.8hPa NNW 2.0mph /  3.2km/h 8.0mph /  12.9km/h 38% 0.00in /  0mm
20:04 39.1 °F /  3.9 °C 15.0 °F /  -9.4 °C 29.97in /  1014.8hPa North 3.0mph /  4.8km/h 12.0mph /  19.3km/h 37% 0.00in /  0mm
20:09 39.1 °F /  3.9 °C 15.0 °F /  -9.4 °C 29.97in /  1014.8hPa NNW 4.0mph /  6.4km/h 12.0mph /  19.3km/h 37% 0.00in /  0mm
20:14 39.1 °F /  3.9 °C 15.0 °F /  -9.4 °C 29.98in /  1015.1hPa NNW 3.0mph /  4.8km/h 10.0mph /  16.1km/h 37% 0.00in /  0mm
20:19 39.0 °F /  3.9 °C 14.9 °F /  -9.5 °C 29.98in /  1015.1hPa NNW 2.0mph /  3.2km/h 10.0mph /  16.1km/h 37% 0.00in /  0mm
20:24 39.1 °F /  3.9 °C 15.0 °F /  -9.4 °C 29.98in /  1015.1hPa NNW 7.0mph /  11.3km/h 12.0mph /  19.3km/h 37% 0.00in /  0mm
20:29 39.3 °F /  4.1 °C 15.8 °F /  -9 °C 29.98in /  1015.1hPa NNW 2.0mph /  3.2km/h 12.0mph /  19.3km/h 38% 0.00in /  0mm
20:34 39.2 °F /  4 °C 15.7 °F /  -9.1 °C 29.98in /  1015.1hPa NNW 1.0mph /  1.6km/h 10.0mph /  16.1km/h 38% 0.00in /  0mm
20:39 39.1 °F /  3.9 °C 15.6 °F /  -9.1 °C 29.98in /  1015.1hPa NNW 1.0mph /  1.6km/h 8.0mph /  12.9km/h 38% 0.00in /  0mm
20:44 39.0 °F /  3.9 °C 15.5 °F /  -9.2 °C 29.99in /  1015.5hPa NNW 1.0mph /  1.6km/h 8.0mph /  12.9km/h 38% 0.00in /  0mm
20:49 39.0 °F /  3.9 °C 15.5 °F /  -9.2 °C 29.99in /  1015.5hPa NW 2.0mph /  3.2km/h 11.0mph /  17.7km/h 38% 0.00in /  0mm
20:54 39.1 °F /  3.9 °C 15.0 °F /  -9.4 °C 29.99in /  1015.5hPa North 2.0mph /  3.2km/h 11.0mph /  17.7km/h 37% 0.00in /  0mm
20:59 39.0 °F /  3.9 °C 15.5 °F /  -9.2 °C 29.99in /  1015.5hPa North 3.0mph /  4.8km/h 8.0mph /  12.9km/h 38% 0.00in /  0mm
21:05 39.0 °F /  3.9 °C 14.9 °F /  -9.5 °C 29.99in /  1015.5hPa Calm   7.0mph /  11.3km/h 37% 0.00in /  0mm
21:14 38.7 °F /  3.7 °C 14.7 °F /  -9.6 °C 29.99in /  1015.5hPa NW 1.0mph /  1.6km/h 8.0mph /  12.9km/h 37% 0.00in /  0mm
21:19 38.6 °F /  3.7 °C 14.6 °F /  -9.7 °C 29.99in /  1015.5hPa NNW 3.0mph /  4.8km/h 7.0mph /  11.3km/h 37% 0.00in /  0mm
21:24 38.7 °F /  3.7 °C 15.3 °F /  -9.3 °C 29.99in /  1015.5hPa NNW 1.0mph /  1.6km/h 7.0mph /  11.3km/h 38% 0.00in /  0mm
21:29 38.8 °F /  3.8 °C 14.7 °F /  -9.6 °C 29.99in /  1015.5hPa NNW 2.0mph /  3.2km/h 8.0mph /  12.9km/h 37% 0.00in /  0mm
21:35 38.9 °F /  3.8 °C 16.6 °F /  -8.6 °C 30.00in /  1015.8hPa Calm   8.0mph /  12.9km/h 40% 0.00in /  0mm
21:44 38.6 °F /  3.7 °C 18.0 °F /  -7.8 °C 30.00in /  1015.8hPa Calm   5.0mph /  8km/h 43% 0.00in /  0mm
21:49 38.4 °F /  3.6 °C 17.3 °F /  -8.2 °C 30.00in /  1015.8hPa Calm     42% 0.00in /  0mm
21:55 38.2 °F /  3.4 °C 18.7 °F /  -7.4 °C 30.00in /  1015.8hPa Calm     45% 0.00in /  0mm
22:00 37.9 °F /  3.3 °C 19.0 °F /  -7.2 °C 29.99in /  1015.5hPa Calm   1.0mph /  1.6km/h 46% 0.00in /  0mm
22:09 37.7 °F /  3.2 °C 17.2 °F /  -8.2 °C 29.99in /  1015.5hPa Calm     43% 0.00in /  0mm
22:14 37.6 °F /  3.1 °C 18.2 °F /  -7.7 °C 29.99in /  1015.5hPa Calm     45% 0.00in /  0mm
22:19 37.5 °F /  3.1 °C 17.0 °F /  -8.3 °C 29.99in /  1015.5hPa Calm     43% 0.00in /  0mm
22:24 37.4 °F /  3 °C 17.5 °F /  -8.1 °C 29.99in /  1015.5hPa Calm     44% 0.00in /  0mm
22:29 37.3 °F /  2.9 °C 18.9 °F /  -7.3 °C 29.99in /  1015.5hPa Calm     47% 0.00in /  0mm
22:34 37.1 °F /  2.8 °C 18.2 °F /  -7.7 °C 29.99in /  1015.5hPa Calm     46% 0.00in /  0mm
22:39 36.9 °F /  2.7 °C 17.5 °F /  -8.1 °C 29.99in /  1015.5hPa Calm     45% 0.00in /  0mm
22:50 36.7 °F /  2.6 °C 17.3 °F /  -8.2 °C 29.99in /  1015.5hPa Calm     45% 0.00in /  0mm
22:59 36.4 °F /  2.4 °C 17.6 °F /  -8 °C 29.99in /  1015.5hPa Calm     46% 0.00in /  0mm
23:04 36.4 °F /  2.4 °C 17.6 °F /  -8 °C 29.99in /  1015.5hPa Calm     46% 0.00in /  0mm
23:09 36.3 °F /  2.4 °C 17.5 °F /  -8.1 °C 29.99in /  1015.5hPa Calm     46% 0.00in /  0mm
23:14 36.0 °F /  2.2 °C 16.7 °F /  -8.5 °C 29.99in /  1015.5hPa Calm     45% 0.00in /  0mm
23:19 35.8 °F /  2.1 °C 16.5 °F /  -8.6 °C 29.99in /  1015.5hPa Calm     45% 0.00in /  0mm
23:24 35.7 °F /  2.1 °C 16.4 °F /  -8.7 °C 29.99in /  1015.5hPa Calm     45% 0.00in /  0mm
23:29 35.6 °F /  2 °C 16.3 °F /  -8.7 °C 29.99in /  1015.5hPa Calm     45% 0.00in /  0mm
23:34 35.0 °F /  1.7 °C 16.8 °F /  -8.4 °C 29.99in /  1015.5hPa Calm     47% 0.00in /  0mm
23:44 34.3 °F /  1.3 °C 16.6 °F /  -8.6 °C 29.99in /  1015.5hPa Calm     48% 0.00in /  0mm
23:54 33.5 °F /  0.8 °C 17.8 °F /  -7.9 °C 30.00in /  1015.8hPa Calm     52% 0.00in /  0mm
Westford Weather
Compliments of Weather Underground

 
 
Current Radar Loop:

Copyright © WestfordWeather.net 2007-2014. All rights reserved.